createdAt,value
2023-04-01T00:01:33.338Z,9.62
2023-04-01T00:04:05.462Z,9.58
2023-04-01T00:06:35.132Z,9.56
2023-04-01T00:09:05.878Z,9.57
2023-04-01T00:11:35.196Z,9.59
2023-04-01T00:14:06.497Z,9.61
2023-04-01T00:16:37.559Z,9.62
2023-04-01T00:19:08.085Z,9.61
2023-04-01T00:21:44.120Z,9.63
2023-04-01T00:24:15.102Z,9.65
2023-04-01T00:26:46.729Z,9.68
2023-04-01T00:29:17.409Z,9.71
2023-04-01T00:31:49.637Z,9.78
2023-04-01T00:34:19.937Z,9.85
2023-04-01T00:36:51.506Z,9.88
2023-04-01T00:39:22.500Z,9.89
2023-04-01T00:41:51.666Z,9.90
2023-04-01T00:44:33.213Z,9.89
2023-04-01T00:47:04.767Z,9.90
2023-04-01T00:49:37.124Z,9.90
2023-04-01T00:52:07.864Z,9.92
2023-04-01T00:54:38.893Z,9.92
2023-04-01T00:57:11.831Z,9.97
2023-04-01T00:59:43.683Z,10.01
2023-04-01T01:02:14.165Z,10.05
2023-04-01T01:04:44.070Z,10.05
2023-04-01T01:07:13.016Z,9.98
2023-04-01T01:09:43.788Z,9.90
2023-04-01T01:12:23.060Z,9.86
2023-04-01T01:14:58.514Z,9.83
2023-04-01T01:17:33.459Z,9.78
2023-04-01T01:20:12.752Z,9.73
2023-04-01T01:23:08.998Z,9.67
2023-04-01T01:26:05.901Z,9.64
2023-04-01T01:28:50.180Z,9.67
2023-04-01T01:31:24.748Z,9.71
2023-04-01T01:34:12.541Z,9.73
2023-04-01T01:36:46.420Z,9.76
2023-04-01T01:39:17.504Z,9.84
2023-04-01T01:41:50.689Z,9.89
2023-04-01T01:44:21.347Z,9.90
2023-04-01T01:46:51.261Z,9.85
2023-04-01T01:49:21.681Z,9.80
2023-04-01T01:51:52.380Z,9.76
2023-04-01T01:54:23.458Z,9.76
2023-04-01T01:56:57.331Z,9.82
2023-04-01T01:59:30.807Z,9.89
2023-04-01T02:02:01.941Z,9.89
2023-04-01T02:04:31.712Z,9.85
2023-04-01T02:07:05.055Z,9.80
2023-04-01T02:09:35.765Z,9.75
2023-04-01T02:12:07.402Z,9.68
2023-04-01T02:14:44.929Z,9.63
2023-04-01T02:17:17.244Z,9.57
2023-04-01T02:19:53.215Z,9.54
2023-04-01T02:22:27.349Z,9.51
2023-04-01T02:25:01.868Z,9.48
2023-04-01T02:27:34.227Z,9.45
2023-04-01T02:30:05.917Z,9.44
2023-04-01T02:32:36.065Z,9.45
2023-04-01T02:35:10.079Z,9.48
2023-04-01T02:37:43.822Z,9.49
2023-04-01T02:40:14.275Z,9.50
2023-04-01T02:42:43.969Z,9.46
2023-04-01T02:45:13.877Z,9.48
2023-04-01T02:47:43.776Z,9.51
2023-04-01T02:50:15.520Z,9.51
2023-04-01T02:52:45.138Z,9.47
2023-04-01T02:55:15.108Z,9.42
2023-04-01T02:57:47.674Z,9.35
2023-04-01T03:00:18.166Z,9.30
2023-04-01T03:02:51.943Z,9.28
2023-04-01T03:05:21.912Z,9.28
2023-04-01T03:07:54.001Z,9.28
2023-04-01T03:10:23.488Z,9.31
2023-04-01T03:12:57.567Z,9.33
2023-04-01T03:15:29.025Z,9.40
2023-04-01T03:17:59.349Z,9.44
2023-04-01T03:20:31.051Z,9.43
2023-04-01T03:23:02.121Z,9.43
2023-04-01T03:25:33.142Z,9.43
2023-04-01T03:28:04.190Z,9.41
2023-04-01T03:30:35.140Z,9.38
2023-04-01T03:33:05.192Z,9.40
2023-04-01T03:35:37.294Z,9.44
2023-04-01T03:38:06.460Z,9.45
2023-04-01T03:40:39.684Z,9.50
2023-04-01T03:43:13.109Z,9.56
2023-04-01T03:45:48.367Z,9.53
2023-04-01T03:48:18.247Z,9.44
2023-04-01T03:50:47.757Z,9.35
2023-04-01T03:53:17.324Z,9.31
2023-04-01T03:55:48.023Z,9.32
2023-04-01T03:58:18.976Z,9.39
2023-04-01T04:00:48.788Z,9.48
2023-04-01T04:03:17.888Z,9.57
2023-04-01T04:05:49.918Z,9.65
2023-04-01T04:08:23.060Z,9.73
2023-04-01T04:10:56.656Z,9.79
2023-04-01T04:13:26.195Z,9.81
2023-04-01T04:16:00.955Z,9.72
2023-04-01T04:18:30.892Z,9.61
2023-04-01T04:21:01.893Z,9.54
2023-04-01T04:23:31.964Z,9.54
2023-04-01T04:26:02.995Z,9.56
2023-04-01T04:28:32.612Z,9.64
2023-04-01T04:31:02.663Z,9.71
2023-04-01T04:33:32.474Z,9.74
2023-04-01T04:36:02.338Z,9.79
2023-04-01T04:38:32.687Z,9.82
2023-04-01T04:41:03.304Z,9.85
2023-04-01T04:43:36.124Z,9.92
2023-04-01T04:46:10.115Z,9.99
2023-04-01T04:48:39.593Z,10.03
2023-04-01T04:51:11.376Z,10.06
2023-04-01T04:53:42.974Z,10.08
2023-04-01T04:56:13.718Z,10.11
2023-04-01T04:58:52.651Z,10.15
2023-04-01T05:01:24.478Z,10.15
2023-04-01T05:03:54.634Z,10.14
2023-04-01T05:06:27.154Z,10.14
2023-04-01T05:08:57.958Z,10.12
2023-04-01T05:11:27.903Z,10.08
2023-04-01T05:13:58.706Z,10.08
2023-04-01T05:16:31.815Z,10.06
2023-04-01T05:19:02.107Z,10.01
2023-04-01T05:21:33.485Z,10.01
2023-04-01T05:24:02.725Z,10.02
2023-04-01T05:26:33.890Z,10.03
2023-04-01T05:29:02.838Z,10.03
2023-04-01T05:31:32.394Z,10.01
2023-04-01T05:34:04.701Z,10.00
2023-04-01T05:36:35.658Z,9.97
2023-04-01T05:39:05.169Z,9.94
2023-04-01T05:41:36.967Z,9.96
2023-04-01T05:44:07.918Z,9.94
2023-04-01T05:46:44.276Z,9.92
2023-04-01T05:49:29.058Z,9.90
2023-04-01T05:51:59.338Z,9.89
2023-04-01T05:54:30.344Z,9.94
2023-04-01T05:57:01.379Z,9.96
2023-04-01T05:59:32.545Z,9.99
2023-04-01T06:02:03.104Z,10.03
2023-04-01T06:04:40.889Z,10.07
2023-04-01T06:07:18.950Z,10.10
2023-04-01T06:09:51.621Z,10.12
2023-04-01T06:12:33.956Z,10.13
2023-04-01T06:15:12.762Z,10.14
2023-04-01T06:17:59.177Z,10.13
2023-04-01T06:20:51.395Z,10.12
2023-04-01T06:23:51.342Z,10.08
2023-04-01T06:26:20.611Z,10.09
2023-04-01T06:29:14.908Z,10.10
2023-04-01T06:32:06.984Z,10.09
2023-04-01T06:34:41.324Z,10.10
2023-04-01T06:37:31.241Z,10.09
2023-04-01T06:40:00.379Z,10.09
2023-04-01T06:42:38.773Z,10.08
2023-04-01T06:45:31.917Z,10.06
2023-04-01T06:48:39.615Z,9.97
2023-04-01T06:51:45.519Z,9.90
2023-04-01T06:54:36.926Z,9.86
2023-04-01T06:57:29.540Z,9.86
2023-04-01T07:00:02.933Z,9.82
2023-04-01T07:02:45.840Z,9.75
2023-04-01T07:05:16.675Z,9.67
2023-04-01T07:07:52.493Z,9.62
2023-04-01T07:10:25.130Z,9.59
2023-04-01T07:13:26.422Z,9.57
2023-04-01T07:16:05.249Z,9.59
2023-04-01T07:18:48.530Z,9.60
2023-04-01T07:21:44.149Z,9.62
2023-04-01T07:24:20.750Z,9.59
2023-04-01T07:27:16.800Z,9.56
2023-04-01T07:29:50.345Z,9.57
2023-04-01T07:32:21.565Z,9.56
2023-04-01T07:34:51.241Z,9.54
2023-04-01T07:37:28.857Z,9.54
2023-04-01T07:40:16.679Z,9.55
2023-04-01T07:43:03.626Z,9.54
2023-04-01T07:45:52.593Z,9.53
2023-04-01T07:48:44.588Z,9.53
2023-04-01T07:51:41.577Z,9.52
2023-04-01T07:54:32.450Z,9.54
2023-04-01T07:57:21.160Z,9.50
2023-04-01T07:59:57.760Z,9.46
2023-04-01T08:03:09.986Z,9.40
2023-04-01T08:05:50.143Z,9.36
2023-04-01T08:08:20.873Z,9.34
2023-04-01T08:11:30.312Z,9.33
2023-04-01T08:14:40.036Z,9.35
2023-04-01T08:17:45.546Z,9.35
2023-04-01T08:20:22.407Z,9.35
2023-04-01T08:23:05.225Z,9.39
2023-04-01T08:25:43.973Z,9.42
2023-04-01T08:28:46.449Z,9.41
2023-04-01T08:31:35.671Z,9.40
2023-04-01T08:34:12.287Z,9.40
2023-04-01T08:36:46.814Z,9.40
2023-04-01T08:39:22.956Z,9.38
2023-04-01T08:42:13.175Z,9.35
2023-04-01T08:45:38.205Z,9.39
2023-04-01T08:48:45.786Z,9.45
2023-04-01T08:52:01.040Z,9.54
2023-04-01T08:54:34.754Z,9.61
2023-04-01T08:57:26.575Z,9.67
2023-04-01T09:00:25.457Z,9.78
2023-04-01T09:03:28.126Z,9.90
2023-04-01T09:06:06.137Z,9.99
2023-04-01T09:09:16.616Z,10.11
2023-04-01T09:16:18.457Z,10.29
2023-04-01T09:26:32.163Z,10.56
2023-04-01T09:29:24.638Z,10.70
2023-04-01T09:32:31.027Z,10.77
2023-04-01T09:35:31.149Z,10.75
2023-04-01T09:38:21.929Z,10.72
2023-04-01T09:41:00.851Z,10.73
2023-04-01T09:44:11.250Z,10.82
2023-04-01T09:46:59.641Z,10.92
2023-04-01T09:49:53.179Z,11.04
2023-04-01T09:52:26.877Z,11.15
2023-04-01T09:55:16.326Z,11.24
2023-04-01T09:58:05.101Z,11.30
2023-04-01T10:01:11.991Z,11.41
2023-04-01T10:03:59.741Z,11.53
2023-04-01T10:06:29.540Z,11.75
2023-04-01T10:09:12.125Z,11.81
2023-04-01T10:12:21.016Z,11.71
2023-04-01T10:15:10.986Z,11.59
2023-04-01T10:17:46.232Z,11.50
2023-04-01T10:20:36.420Z,11.42
2023-04-01T10:23:22.569Z,11.33
2023-04-01T10:26:18.793Z,11.23
2023-04-01T10:28:55.585Z,11.13
2023-04-01T10:31:51.331Z,11.04
2023-04-01T10:34:44.141Z,10.91
2023-04-01T10:37:14.281Z,10.80
2023-04-01T10:40:02.681Z,10.78
2023-04-01T10:42:45.666Z,10.74
2023-04-01T10:45:27.647Z,10.72
2023-04-01T10:48:15.522Z,10.79
2023-04-01T10:51:12.420Z,10.89
2023-04-01T10:54:19.261Z,10.97
2023-04-01T10:57:32.842Z,11.07
2023-04-01T11:00:53.010Z,11.05
2023-04-01T11:03:44.216Z,11.01
2023-04-01T11:06:51.135Z,10.92
2023-04-01T11:09:40.919Z,10.81
2023-04-01T11:12:13.983Z,10.71
2023-04-01T11:14:59.882Z,10.72
2023-04-01T11:17:48.440Z,10.72
2023-04-01T11:20:30.251Z,10.75
2023-04-01T11:23:08.843Z,10.80
2023-04-01T11:25:59.192Z,10.81
2023-04-01T11:29:17.910Z,10.80
2023-04-01T11:32:09.079Z,10.78
2023-04-01T11:34:44.960Z,10.72
2023-04-01T11:37:24.981Z,10.66
2023-04-01T11:40:26.188Z,10.57
2023-04-01T11:43:49.465Z,10.43
2023-04-01T11:46:48.110Z,10.38
2023-04-01T11:49:23.172Z,10.32
2023-04-01T11:52:16.842Z,10.25
2023-04-01T11:54:55.921Z,10.19
2023-04-01T11:57:44.240Z,10.17
2023-04-01T12:00:16.789Z,10.11
2023-04-01T12:03:05.600Z,10.02
2023-04-01T12:05:40.029Z,9.98
2023-04-01T12:08:27.984Z,9.89
2023-04-01T12:11:19.160Z,9.76
2023-04-01T12:14:07.136Z,9.67
2023-04-01T12:16:37.006Z,9.64
2023-04-01T12:19:14.719Z,9.61
2023-04-01T12:21:51.654Z,9.61
2023-04-01T12:24:39.248Z,9.63
2023-04-01T12:27:24.942Z,9.63
2023-04-01T12:29:58.113Z,9.63
2023-04-01T12:32:36.629Z,9.62
2023-04-01T12:35:23.246Z,9.60
2023-04-01T12:38:14.104Z,9.57
2023-04-01T12:40:55.075Z,9.52
2023-04-01T12:43:42.612Z,9.52
2023-04-01T12:46:26.770Z,9.49
2023-04-01T12:49:02.114Z,9.50
2023-04-01T12:51:42.368Z,9.45
2023-04-01T12:54:13.003Z,9.40
2023-04-01T12:56:42.957Z,9.38
2023-04-01T12:59:22.744Z,9.39
2023-04-01T13:01:53.224Z,9.39
2023-04-01T13:04:38.462Z,9.42
2023-04-01T13:07:27.175Z,9.39
2023-04-01T13:10:16.704Z,9.39
2023-04-01T13:12:51.447Z,9.40
2023-04-01T13:15:33.831Z,9.41
2023-04-01T13:18:17.105Z,9.45
2023-04-01T13:20:47.304Z,9.46
2023-04-01T13:23:33.869Z,9.43
2023-04-01T13:26:23.772Z,9.37
2023-04-01T13:29:09.366Z,9.32
2023-04-01T13:31:43.149Z,9.36
2023-04-01T13:34:22.782Z,9.36
2023-04-01T13:37:04.749Z,9.33
2023-04-01T13:39:52.444Z,9.33
2023-04-01T13:42:30.355Z,9.31
2023-04-01T13:45:14.157Z,9.27
2023-04-01T13:47:43.092Z,9.25
2023-04-01T13:50:31.596Z,9.19
2023-04-01T13:53:28.382Z,9.11
2023-04-01T13:56:05.706Z,9.13
2023-04-01T13:58:56.652Z,9.08
2023-04-01T14:01:41.234Z,9.06
2023-04-01T14:04:23.872Z,9.08
2023-04-01T14:07:11.853Z,9.07
2023-04-01T14:10:01.144Z,9.06
2023-04-01T14:12:34.952Z,8.97
2023-04-01T14:15:23.770Z,8.96
2023-04-01T14:18:01.971Z,8.99
2023-04-01T14:20:42.792Z,8.96
2023-04-01T14:23:19.477Z,8.92
2023-04-01T14:26:01.780Z,8.86
2023-04-01T14:28:58.378Z,8.87
2023-04-01T14:31:52.364Z,8.89
2023-04-01T14:34:40.459Z,8.88
2023-04-01T14:37:17.512Z,8.82
2023-04-01T14:39:49.679Z,8.74
2023-04-01T14:42:25.035Z,8.66
2023-04-01T14:45:14.909Z,8.59
2023-04-01T14:47:49.163Z,8.57
2023-04-01T14:50:20.533Z,8.54
2023-04-01T14:53:19.436Z,8.53
2023-04-01T14:55:52.744Z,8.45
2023-04-01T14:58:26.621Z,8.38
2023-04-01T15:00:56.809Z,8.30
2023-04-01T15:03:35.404Z,8.23
2023-04-01T15:06:22.960Z,8.20
2023-04-01T15:09:16.481Z,8.22
2023-04-01T15:12:05.920Z,8.25
2023-04-01T15:14:48.650Z,8.27
2023-04-01T15:17:24.757Z,8.27
2023-04-01T15:20:29.442Z,8.24
2023-04-01T15:23:17.186Z,8.15
2023-04-01T15:25:54.103Z,8.08
2023-04-01T15:28:41.614Z,8.06
2023-04-01T15:31:20.731Z,8.04
2023-04-01T15:33:59.749Z,8.05
2023-04-01T15:36:45.502Z,8.00
2023-04-01T15:39:40.130Z,7.92
2023-04-01T15:42:29.526Z,7.87
2023-04-01T15:45:02.042Z,7.90
2023-04-01T15:47:37.442Z,7.83
2023-04-01T15:50:41.924Z,7.80
2023-04-01T15:53:13.908Z,7.78
2023-04-01T15:56:01.053Z,7.79
2023-04-01T15:59:05.607Z,7.74
2023-04-01T16:01:41.907Z,7.68
2023-04-01T16:04:13.721Z,7.64
2023-04-01T16:07:16.722Z,7.57
2023-04-01T16:10:00.417Z,7.52
2023-04-01T16:12:34.650Z,7.48
2023-04-01T16:15:24.366Z,7.43
2023-04-01T16:17:57.494Z,7.40
2023-04-01T16:20:33.153Z,7.42
2023-04-01T16:23:15.939Z,7.40
2023-04-01T16:25:51.299Z,7.43
2023-04-01T16:28:21.781Z,7.42
2023-04-01T16:30:51.066Z,7.40
2023-04-01T16:33:53.019Z,7.35
2023-04-01T16:36:26.857Z,7.23
2023-04-01T16:39:21.966Z,7.23
2023-04-01T16:41:56.060Z,7.21
2023-04-01T16:44:26.587Z,7.24
2023-04-01T16:47:04.571Z,7.24
2023-04-01T16:49:50.056Z,7.26
2023-04-01T16:52:42.510Z,7.24
2023-04-01T16:55:23.069Z,7.15
2023-04-01T16:58:00.093Z,7.09
2023-04-01T17:00:39.930Z,7.12
2023-04-01T17:03:10.736Z,7.13
2023-04-01T17:05:41.731Z,7.15
2023-04-01T17:08:30.225Z,7.04
2023-04-01T17:11:19.045Z,6.97
2023-04-01T17:14:18.112Z,6.86
2023-04-01T17:17:00.807Z,6.79
2023-04-01T17:19:37.058Z,6.82
2023-04-01T17:22:27.976Z,6.76
2023-04-01T17:25:07.277Z,6.73
2023-04-01T17:27:43.515Z,6.64
2023-04-01T17:30:26.524Z,6.61
2023-04-01T17:33:00.339Z,6.54
2023-04-01T17:35:52.980Z,6.56
2023-04-01T17:38:45.205Z,6.56
2023-04-01T17:41:43.197Z,6.48
2023-04-01T17:44:25.143Z,6.46
2023-04-01T17:47:07.020Z,6.46
2023-04-01T17:49:58.008Z,6.47
2023-04-01T17:52:48.678Z,6.39
2023-04-01T17:55:52.618Z,6.32
2023-04-01T17:58:46.913Z,6.36
2023-04-01T18:04:37.329Z,6.34
2023-04-01T18:07:12.653Z,6.30
2023-04-01T18:10:11.464Z,6.21
2023-04-01T18:13:03.808Z,6.15
2023-04-01T18:15:59.444Z,6.08
2023-04-01T18:18:50.287Z,6.06
2023-04-01T18:21:46.243Z,6.04
2023-04-01T18:24:38.298Z,5.98
2023-04-01T18:27:30.204Z,5.89
2023-04-01T18:30:28.677Z,5.82
2023-04-01T18:49:44.692Z,5.68
2023-04-01T18:52:33.433Z,5.61
2023-04-01T18:55:26.415Z,5.56
2023-04-01T18:58:33.639Z,5.55
2023-04-01T19:01:24.611Z,5.55
2023-04-01T19:04:16.064Z,5.57
2023-04-01T19:06:54.791Z,5.59
2023-04-01T19:09:27.627Z,5.58
2023-04-01T19:12:11.282Z,5.57
2023-04-01T19:15:10.663Z,5.48
2023-04-01T19:17:56.833Z,5.42
2023-04-01T19:20:49.734Z,5.37
2023-04-01T19:23:42.961Z,5.32
2023-04-01T19:26:34.080Z,5.28
2023-04-01T20:22:38.326Z,5.04
2023-04-01T20:25:15.203Z,5.05
2023-04-01T20:27:52.658Z,5.04
2023-04-01T20:30:32.122Z,4.99
2023-04-01T20:33:10.713Z,4.96
2023-04-01T20:35:53.576Z,4.91
2023-04-01T20:38:45.494Z,4.89
2023-04-01T20:41:36.715Z,4.89
2023-04-01T20:44:12.647Z,4.90
2023-04-01T20:46:49.154Z,4.90
2023-04-01T20:49:35.202Z,4.87
2023-04-01T20:52:19.792Z,4.84
2023-04-01T20:55:08.016Z,4.81
2023-04-01T20:57:37.581Z,4.81
2023-04-01T21:00:21.680Z,4.78
2023-04-01T21:03:03.469Z,4.72
2023-04-01T21:05:54.964Z,4.64
2023-04-01T21:08:30.242Z,4.59
2023-04-01T21:11:07.190Z,4.58
2023-04-01T21:13:58.064Z,4.52
2023-04-01T21:16:45.467Z,4.52
2023-04-01T21:19:18.740Z,4.46
2023-04-01T21:22:00.353Z,4.41
2023-04-01T21:24:37.983Z,4.41
2023-04-01T21:27:14.589Z,4.42
2023-04-01T21:30:02.804Z,4.46
2023-04-01T21:32:40.911Z,4.47
2023-04-01T21:35:23.390Z,4.48
2023-04-01T21:37:58.945Z,4.52
2023-04-01T21:41:06.418Z,4.55
2023-04-01T21:43:45.287Z,4.51
2023-04-01T21:46:37.275Z,4.49
2023-04-01T21:49:26.124Z,4.47
2023-04-01T21:52:04.661Z,4.44
2023-04-01T21:54:46.319Z,4.40
2023-04-01T21:57:22.332Z,4.36
2023-04-01T22:00:17.603Z,4.33
2023-04-01T22:02:49.811Z,4.33
2023-04-01T22:05:22.620Z,4.29
2023-04-01T22:08:10.787Z,4.27
2023-04-01T22:10:47.321Z,4.27
2023-04-01T22:13:26.650Z,4.30
2023-04-01T22:16:15.015Z,4.33
2023-04-01T22:18:48.526Z,4.34
2023-04-01T22:21:23.750Z,4.39
2023-04-01T22:24:12.765Z,4.41
2023-04-01T22:26:54.603Z,4.41
2023-04-01T22:29:56.386Z,4.42
2023-04-01T22:32:30.741Z,4.42
2023-04-01T22:35:14.660Z,4.41
2023-04-01T22:37:55.777Z,4.39
2023-04-01T22:40:33.221Z,4.36
2023-04-01T22:43:22.228Z,4.33
2023-04-01T22:46:04.465Z,4.31
2023-04-01T22:49:07.072Z,4.26
2023-04-01T22:51:46.259Z,4.22
2023-04-01T22:54:29.233Z,4.20
2023-04-01T22:57:04.945Z,4.14
2023-04-01T22:59:41.081Z,4.10
2023-04-01T23:02:18.299Z,4.09
2023-04-01T23:04:52.040Z,4.05
2023-04-01T23:07:54.866Z,4.04
2023-04-01T23:10:50.386Z,4.08
2023-04-01T23:13:22.047Z,4.09
2023-04-01T23:15:53.404Z,4.06
2023-04-01T23:18:25.554Z,4.08
2023-04-01T23:21:14.072Z,4.11
2023-04-01T23:23:43.738Z,4.12
2023-04-01T23:26:23.115Z,4.11
2023-04-01T23:28:56.111Z,4.04
2023-04-01T23:31:29.388Z,4.01
2023-04-01T23:33:59.861Z,4.01
2023-04-01T23:36:31.306Z,4.00
2023-04-01T23:39:04.702Z,3.97
2023-04-01T23:41:34.330Z,3.96
2023-04-01T23:44:06.333Z,3.91
2023-04-01T23:46:36.479Z,3.86
2023-04-01T23:49:07.939Z,3.83
2023-04-01T23:51:41.075Z,3.83
2023-04-01T23:54:20.283Z,3.84
2023-04-01T23:56:50.679Z,3.80
2023-04-01T23:59:39.966Z,3.79
